sensor_id;sensor_type;location;lat;lon;timestamp;temperature;humidity
5806;DHT22;2929;50.810;8.342;2023-05-10T00:00:09;11.90;99.90
5806;DHT22;2929;50.810;8.342;2023-05-10T00:02:40;11.80;99.90
5806;DHT22;2929;50.810;8.342;2023-05-10T00:05:07;11.70;99.90
5806;DHT22;2929;50.810;8.342;2023-05-10T00:07:34;11.70;99.90
5806;DHT22;2929;50.810;8.342;2023-05-10T00:10:01;11.60;99.90
5806;DHT22;2929;50.810;8.342;2023-05-10T00:12:28;11.60;99.90
5806;DHT22;2929;50.810;8.342;2023-05-10T00:14:55;11.60;99.90
5806;DHT22;2929;50.810;8.342;2023-05-10T00:17:22;11.60;99.90
5806;DHT22;2929;50.810;8.342;2023-05-10T00:19:51;11.60;99.90
5806;DHT22;2929;50.810;8.342;2023-05-10T00:22:18;11.60;99.90
5806;DHT22;2929;50.810;8.342;2023-05-10T00:24:45;11.60;99.90
5806;DHT22;2929;50.810;8.342;2023-05-10T00:27:12;11.60;99.90
5806;DHT22;2929;50.810;8.342;2023-05-10T00:29:39;11.60;99.90
5806;DHT22;2929;50.810;8.342;2023-05-10T00:32:06;11.60;99.90
5806;DHT22;2929;50.810;8.342;2023-05-10T00:34:33;11.60;99.90
5806;DHT22;2929;50.810;8.342;2023-05-10T00:37:01;11.50;99.90
5806;DHT22;2929;50.810;8.342;2023-05-10T00:39:28;11.50;99.90
5806;DHT22;2929;50.810;8.342;2023-05-10T00:41:55;11.50;99.90
5806;DHT22;2929;50.810;8.342;2023-05-10T00:44:22;11.60;99.90
5806;DHT22;2929;50.810;8.342;2023-05-10T00:46:50;11.50;99.90
5806;DHT22;2929;50.810;8.342;2023-05-10T00:49:17;11.50;99.90
5806;DHT22;2929;50.810;8.342;2023-05-10T00:51:44;11.50;99.90
5806;DHT22;2929;50.810;8.342;2023-05-10T00:54:14;11.50;99.90
5806;DHT22;2929;50.810;8.342;2023-05-10T00:56:42;11.50;99.90
5806;DHT22;2929;50.810;8.342;2023-05-10T00:59:14;11.50;99.90
5806;DHT22;2929;50.810;8.342;2023-05-10T01:01:42;11.50;99.90
5806;DHT22;2929;50.810;8.342;2023-05-10T01:33:46;11.50;99.90
5806;DHT22;2929;50.810;8.342;2023-05-10T01:36:21;11.50;99.90
5806;DHT22;2929;50.810;8.342;2023-05-10T01:38:55;11.50;99.90
5806;DHT22;2929;50.810;8.342;2023-05-10T01:41:28;11.50;99.90
5806;DHT22;2929;50.810;8.342;2023-05-10T01:44:00;11.50;99.90
5806;DHT22;2929;50.810;8.342;2023-05-10T01:46:36;11.50;99.90
5806;DHT22;2929;50.810;8.342;2023-05-10T01:49:08;11.50;99.90
5806;DHT22;2929;50.810;8.342;2023-05-10T01:51:39;11.50;99.90
5806;DHT22;2929;50.810;8.342;2023-05-10T01:54:08;11.50;99.90
5806;DHT22;2929;50.810;8.342;2023-05-10T01:56:38;11.40;99.90
5806;DHT22;2929;50.810;8.342;2023-05-10T01:59:11;11.40;99.90
5806;DHT22;2929;50.810;8.342;2023-05-10T02:01:39;11.40;99.90
5806;DHT22;2929;50.810;8.342;2023-05-10T02:04:08;11.40;99.90
5806;DHT22;2929;50.810;8.342;2023-05-10T02:06:36;11.30;99.90
5806;DHT22;2929;50.810;8.342;2023-05-10T02:09:05;11.30;99.90
5806;DHT22;2929;50.810;8.342;2023-05-10T02:11:33;11.40;99.90
5806;DHT22;2929;50.810;8.342;2023-05-10T02:14:01;11.40;99.90
5806;DHT22;2929;50.810;8.342;2023-05-10T02:16:29;11.30;99.90
5806;DHT22;2929;50.810;8.342;2023-05-10T02:18:58;11.40;99.90
5806;DHT22;2929;50.810;8.342;2023-05-10T02:21:28;11.40;99.90
5806;DHT22;2929;50.810;8.342;2023-05-10T02:23:57;11.40;99.90
5806;DHT22;2929;50.810;8.342;2023-05-10T02:26:25;11.50;99.90
5806;DHT22;2929;50.810;8.342;2023-05-10T02:28:54;11.40;99.90
5806;DHT22;2929;50.810;8.342;2023-05-10T02:31:22;11.40;99.90
5806;DHT22;2929;50.810;8.342;2023-05-10T02:33:50;11.30;99.90
5806;DHT22;2929;50.810;8.342;2023-05-10T02:36:19;11.40;99.90
5806;DHT22;2929;50.810;8.342;2023-05-10T02:38:49;11.40;99.90
5806;DHT22;2929;50.810;8.342;2023-05-10T02:41:18;11.40;99.90
5806;DHT22;2929;50.810;8.342;2023-05-10T02:43:49;11.40;99.90
5806;DHT22;2929;50.810;8.342;2023-05-10T02:46:17;11.50;99.90
5806;DHT22;2929;50.810;8.342;2023-05-10T02:48:47;11.40;99.90
5806;DHT22;2929;50.810;8.342;2023-05-10T02:51:16;11.40;99.90
5806;DHT22;2929;50.810;8.342;2023-05-10T02:53:46;11.40;99.90
5806;DHT22;2929;50.810;8.342;2023-05-10T02:56:20;11.40;99.90
5806;DHT22;2929;50.810;8.342;2023-05-10T02:58:49;11.40;99.90
5806;DHT22;2929;50.810;8.342;2023-05-10T03:01:16;11.30;99.90
5806;DHT22;2929;50.810;8.342;2023-05-10T03:03:43;11.30;99.90
5806;DHT22;2929;50.810;8.342;2023-05-10T03:06:10;11.30;99.90
5806;DHT22;2929;50.810;8.342;2023-05-10T03:08:37;11.30;99.90
5806;DHT22;2929;50.810;8.342;2023-05-10T03:11:23;11.30;99.90
5806;DHT22;2929;50.810;8.342;2023-05-10T03:14:10;11.30;99.90
5806;DHT22;2929;50.810;8.342;2023-05-10T03:16:44;11.30;99.90
5806;DHT22;2929;50.810;8.342;2023-05-10T03:19:17;11.30;99.90
5806;DHT22;2929;50.810;8.342;2023-05-10T03:21:51;11.30;99.90
5806;DHT22;2929;50.810;8.342;2023-05-10T03:24:20;11.30;99.90
5806;DHT22;2929;50.810;8.342;2023-05-10T03:26:51;11.30;99.90
5806;DHT22;2929;50.810;8.342;2023-05-10T03:29:22;11.30;99.90
5806;DHT22;2929;50.810;8.342;2023-05-10T03:31:49;11.30;99.90
5806;DHT22;2929;50.810;8.342;2023-05-10T03:34:16;11.30;99.90
5806;DHT22;2929;50.810;8.342;2023-05-10T03:36:43;11.30;99.90
5806;DHT22;2929;50.810;8.342;2023-05-10T03:39:10;11.30;99.90
5806;DHT22;2929;50.810;8.342;2023-05-10T03:41:37;11.30;99.90
5806;DHT22;2929;50.810;8.342;2023-05-10T03:44:06;11.30;99.90
5806;DHT22;2929;50.810;8.342;2023-05-10T03:46:33;11.30;99.90
5806;DHT22;2929;50.810;8.342;2023-05-10T03:49:00;11.30;99.90
5806;DHT22;2929;50.810;8.342;2023-05-10T03:51:27;11.30;99.90
5806;DHT22;2929;50.810;8.342;2023-05-10T03:53:54;11.20;99.90
5806;DHT22;2929;50.810;8.342;2023-05-10T03:56:21;11.20;99.90
5806;DHT22;2929;50.810;8.342;2023-05-10T03:58:48;11.20;99.90
5806;DHT22;2929;50.810;8.342;2023-05-10T04:01:16;11.20;99.90
5806;DHT22;2929;50.810;8.342;2023-05-10T04:03:43;11.20;99.90
5806;DHT22;2929;50.810;8.342;2023-05-10T04:06:11;11.20;99.90
5806;DHT22;2929;50.810;8.342;2023-05-10T04:08:38;11.20;99.90
5806;DHT22;2929;50.810;8.342;2023-05-10T04:11:06;11.20;99.90
5806;DHT22;2929;50.810;8.342;2023-05-10T04:13:33;11.20;99.90
5806;DHT22;2929;50.810;8.342;2023-05-10T04:16:00;11.20;99.90
5806;DHT22;2929;50.810;8.342;2023-05-10T04:18:29;11.20;99.90
5806;DHT22;2929;50.810;8.342;2023-05-10T04:20:57;11.30;99.90
5806;DHT22;2929;50.810;8.342;2023-05-10T04:23:24;11.20;99.90
5806;DHT22;2929;50.810;8.342;2023-05-10T04:25:50;11.30;99.90
5806;DHT22;2929;50.810;8.342;2023-05-10T04:28:18;11.30;99.90
5806;DHT22;2929;50.810;8.342;2023-05-10T04:30:45;11.30;99.90
5806;DHT22;2929;50.810;8.342;2023-05-10T04:33:12;11.30;99.90
5806;DHT22;2929;50.810;8.342;2023-05-10T04:35:41;11.30;99.90
5806;DHT22;2929;50.810;8.342;2023-05-10T04:38:08;11.20;99.90
5806;DHT22;2929;50.810;8.342;2023-05-10T04:40:35;11.20;99.90
5806;DHT22;2929;50.810;8.342;2023-05-10T04:43:02;11.20;99.90
5806;DHT22;2929;50.810;8.342;2023-05-10T04:45:29;11.20;99.90
5806;DHT22;2929;50.810;8.342;2023-05-10T04:47:56;11.30;99.90
5806;DHT22;2929;50.810;8.342;2023-05-10T04:50:23;11.20;99.90
5806;DHT22;2929;50.810;8.342;2023-05-10T04:52:51;11.20;99.90
5806;DHT22;2929;50.810;8.342;2023-05-10T04:55:18;11.20;99.90
5806;DHT22;2929;50.810;8.342;2023-05-10T04:57:45;11.20;99.90
5806;DHT22;2929;50.810;8.342;2023-05-10T05:00:13;11.20;99.90
5806;DHT22;2929;50.810;8.342;2023-05-10T05:02:42;11.20;99.90
5806;DHT22;2929;50.810;8.342;2023-05-10T05:05:10;11.20;99.90
5806;DHT22;2929;50.810;8.342;2023-05-10T05:07:38;11.20;99.90
5806;DHT22;2929;50.810;8.342;2023-05-10T05:10:08;11.20;99.90
5806;DHT22;2929;50.810;8.342;2023-05-10T05:12:35;11.20;99.90
5806;DHT22;2929;50.810;8.342;2023-05-10T05:15:02;11.20;99.90
5806;DHT22;2929;50.810;8.342;2023-05-10T05:17:30;11.20;99.90
5806;DHT22;2929;50.810;8.342;2023-05-10T05:19:57;11.20;99.90
5806;DHT22;2929;50.810;8.342;2023-05-10T05:22:24;11.20;99.90
5806;DHT22;2929;50.810;8.342;2023-05-10T05:24:53;11.30;99.90
5806;DHT22;2929;50.810;8.342;2023-05-10T05:27:22;11.20;99.90
5806;DHT22;2929;50.810;8.342;2023-05-10T05:29:50;11.20;99.90
5806;DHT22;2929;50.810;8.342;2023-05-10T05:32:17;11.20;99.90
5806;DHT22;2929;50.810;8.342;2023-05-10T05:34:44;11.30;99.90
5806;DHT22;2929;50.810;8.342;2023-05-10T05:37:13;11.30;99.90
5806;DHT22;2929;50.810;8.342;2023-05-10T05:39:40;11.30;99.90
5806;DHT22;2929;50.810;8.342;2023-05-10T05:42:08;11.30;99.90
5806;DHT22;2929;50.810;8.342;2023-05-10T05:44:36;11.40;99.90
5806;DHT22;2929;50.810;8.342;2023-05-10T05:47:03;11.40;99.90
5806;DHT22;2929;50.810;8.342;2023-05-10T05:49:30;11.40;99.90
5806;DHT22;2929;50.810;8.342;2023-05-10T05:51:59;11.40;99.90
5806;DHT22;2929;50.810;8.342;2023-05-10T05:54:26;11.50;99.90
5806;DHT22;2929;50.810;8.342;2023-05-10T05:56:54;11.50;99.90
5806;DHT22;2929;50.810;8.342;2023-05-10T05:59:21;11.60;99.90
5806;DHT22;2929;50.810;8.342;2023-05-10T06:01:50;11.60;99.90
5806;DHT22;2929;50.810;8.342;2023-05-10T06:04:17;11.60;99.90
5806;DHT22;2929;50.810;8.342;2023-05-10T06:06:44;11.70;99.90
5806;DHT22;2929;50.810;8.342;2023-05-10T06:09:11;11.70;99.90
5806;DHT22;2929;50.810;8.342;2023-05-10T06:11:38;11.80;99.90
5806;DHT22;2929;50.810;8.342;2023-05-10T06:14:05;11.80;99.90
5806;DHT22;2929;50.810;8.342;2023-05-10T06:16:33;11.80;99.90
5806;DHT22;2929;50.810;8.342;2023-05-10T06:19:02;11.80;99.90
5806;DHT22;2929;50.810;8.342;2023-05-10T06:21:29;11.80;99.90
5806;DHT22;2929;50.810;8.342;2023-05-10T06:23:57;11.80;99.90
5806;DHT22;2929;50.810;8.342;2023-05-10T06:26:24;11.90;99.90
5806;DHT22;2929;50.810;8.342;2023-05-10T06:28:51;12.00;99.90
5806;DHT22;2929;50.810;8.342;2023-05-10T06:31:18;12.10;99.90
5806;DHT22;2929;50.810;8.342;2023-05-10T06:33:44;12.10;99.90
5806;DHT22;2929;50.810;8.342;2023-05-10T06:36:13;12.20;99.90
5806;DHT22;2929;50.810;8.342;2023-05-10T06:38:40;12.30;99.90
5806;DHT22;2929;50.810;8.342;2023-05-10T06:41:07;12.50;99.90
5806;DHT22;2929;50.810;8.342;2023-05-10T06:43:34;12.50;99.90
5806;DHT22;2929;50.810;8.342;2023-05-10T06:46:02;12.50;99.90
5806;DHT22;2929;50.810;8.342;2023-05-10T06:48:29;12.60;99.90
5806;DHT22;2929;50.810;8.342;2023-05-10T06:50:56;12.50;99.90
5806;DHT22;2929;50.810;8.342;2023-05-10T06:53:24;12.60;99.90
5806;DHT22;2929;50.810;8.342;2023-05-10T06:55:51;12.60;99.90
5806;DHT22;2929;50.810;8.342;2023-05-10T06:58:18;12.70;99.90
5806;DHT22;2929;50.810;8.342;2023-05-10T07:00:45;12.80;99.90
5806;DHT22;2929;50.810;8.342;2023-05-10T07:03:13;12.90;99.90
5806;DHT22;2929;50.810;8.342;2023-05-10T07:05:40;12.90;99.90
5806;DHT22;2929;50.810;8.342;2023-05-10T07:08:07;12.90;99.90
5806;DHT22;2929;50.810;8.342;2023-05-10T07:10:35;12.90;99.90
5806;DHT22;2929;50.810;8.342;2023-05-10T07:13:02;13.00;99.90
5806;DHT22;2929;50.810;8.342;2023-05-10T07:15:29;13.10;99.90
5806;DHT22;2929;50.810;8.342;2023-05-10T07:17:56;13.10;99.90
5806;DHT22;2929;50.810;8.342;2023-05-10T07:20:23;13.30;99.90
5806;DHT22;2929;50.810;8.342;2023-05-10T07:22:50;13.40;99.90
5806;DHT22;2929;50.810;8.342;2023-05-10T07:25:17;13.40;99.90
5806;DHT22;2929;50.810;8.342;2023-05-10T07:27:45;13.30;99.90
5806;DHT22;2929;50.810;8.342;2023-05-10T07:30:14;13.20;99.90
5806;DHT22;2929;50.810;8.342;2023-05-10T07:32:41;13.20;99.90
5806;DHT22;2929;50.810;8.342;2023-05-10T07:35:08;13.30;99.90
5806;DHT22;2929;50.810;8.342;2023-05-10T07:37:35;13.30;99.90
5806;DHT22;2929;50.810;8.342;2023-05-10T07:40:03;13.40;99.90
5806;DHT22;2929;50.810;8.342;2023-05-10T07:42:30;13.50;99.90
5806;DHT22;2929;50.810;8.342;2023-05-10T07:44:58;13.40;99.90
5806;DHT22;2929;50.810;8.342;2023-05-10T07:47:25;13.40;99.90
5806;DHT22;2929;50.810;8.342;2023-05-10T07:49:52;13.40;99.90
5806;DHT22;2929;50.810;8.342;2023-05-10T07:52:19;13.30;99.90
5806;DHT22;2929;50.810;8.342;2023-05-10T07:54:46;13.30;99.90
5806;DHT22;2929;50.810;8.342;2023-05-10T07:57:13;13.40;99.90
5806;DHT22;2929;50.810;8.342;2023-05-10T07:59:43;13.40;99.90
5806;DHT22;2929;50.810;8.342;2023-05-10T08:02:12;13.50;99.90
5806;DHT22;2929;50.810;8.342;2023-05-10T08:04:39;13.60;99.90
5806;DHT22;2929;50.810;8.342;2023-05-10T08:07:06;13.70;99.90
5806;DHT22;2929;50.810;8.342;2023-05-10T08:09:33;13.80;99.90
5806;DHT22;2929;50.810;8.342;2023-05-10T08:12:00;14.00;99.90
5806;DHT22;2929;50.810;8.342;2023-05-10T08:14:28;14.20;99.90
5806;DHT22;2929;50.810;8.342;2023-05-10T08:16:56;14.30;99.90
5806;DHT22;2929;50.810;8.342;2023-05-10T08:19:24;14.10;99.90
5806;DHT22;2929;50.810;8.342;2023-05-10T08:21:51;14.10;99.90
5806;DHT22;2929;50.810;8.342;2023-05-10T08:24:19;14.20;99.90
5806;DHT22;2929;50.810;8.342;2023-05-10T08:26:46;14.10;99.90
5806;DHT22;2929;50.810;8.342;2023-05-10T08:29:13;14.00;99.90
5806;DHT22;2929;50.810;8.342;2023-05-10T08:31:40;14.10;99.90
5806;DHT22;2929;50.810;8.342;2023-05-10T08:34:07;14.10;99.90
5806;DHT22;2929;50.810;8.342;2023-05-10T08:36:36;14.00;99.90
5806;DHT22;2929;50.810;8.342;2023-05-10T08:39:03;13.90;99.90
5806;DHT22;2929;50.810;8.342;2023-05-10T08:41:30;13.90;99.90
5806;DHT22;2929;50.810;8.342;2023-05-10T08:43:59;14.00;99.90
5806;DHT22;2929;50.810;8.342;2023-05-10T08:46:31;13.80;99.90
5806;DHT22;2929;50.810;8.342;2023-05-10T08:49:02;13.70;99.90
5806;DHT22;2929;50.810;8.342;2023-05-10T08:51:33;13.60;99.90
5806;DHT22;2929;50.810;8.342;2023-05-10T08:54:04;13.70;99.90
5806;DHT22;2929;50.810;8.342;2023-05-10T08:56:31;13.70;99.90
5806;DHT22;2929;50.810;8.342;2023-05-10T08:58:58;13.80;99.90
5806;DHT22;2929;50.810;8.342;2023-05-10T09:01:25;13.70;99.90
5806;DHT22;2929;50.810;8.342;2023-05-10T09:03:53;13.70;99.90
5806;DHT22;2929;50.810;8.342;2023-05-10T09:06:20;13.60;99.90
5806;DHT22;2929;50.810;8.342;2023-05-10T09:08:47;13.50;99.90
5806;DHT22;2929;50.810;8.342;2023-05-10T09:11:16;13.40;99.90
5806;DHT22;2929;50.810;8.342;2023-05-10T09:13:44;13.40;99.90
5806;DHT22;2929;50.810;8.342;2023-05-10T09:16:11;13.40;99.90
5806;DHT22;2929;50.810;8.342;2023-05-10T09:18:38;13.20;99.90
5806;DHT22;2929;50.810;8.342;2023-05-10T09:21:05;13.20;99.90
5806;DHT22;2929;50.810;8.342;2023-05-10T09:23:32;13.20;99.90
5806;DHT22;2929;50.810;8.342;2023-05-10T09:26:03;13.30;99.90
5806;DHT22;2929;50.810;8.342;2023-05-10T09:28:33;13.50;99.90
5806;DHT22;2929;50.810;8.342;2023-05-10T09:31:00;13.60;99.90
5806;DHT22;2929;50.810;8.342;2023-05-10T09:33:28;13.80;99.90
5806;DHT22;2929;50.810;8.342;2023-05-10T09:35:55;13.80;99.90
5806;DHT22;2929;50.810;8.342;2023-05-10T09:38:22;13.90;99.90
5806;DHT22;2929;50.810;8.342;2023-05-10T09:40:52;14.10;99.90
5806;DHT22;2929;50.810;8.342;2023-05-10T09:43:20;14.40;99.90
5806;DHT22;2929;50.810;8.342;2023-05-10T09:45:49;14.60;99.90
5806;DHT22;2929;50.810;8.342;2023-05-10T09:48:16;14.60;99.90
5806;DHT22;2929;50.810;8.342;2023-05-10T09:50:43;14.80;99.90
5806;DHT22;2929;50.810;8.342;2023-05-10T09:53:14;14.80;99.90
5806;DHT22;2929;50.810;8.342;2023-05-10T09:55:43;14.60;99.90
5806;DHT22;2929;50.810;8.342;2023-05-10T09:58:12;14.60;99.90
5806;DHT22;2929;50.810;8.342;2023-05-10T10:00:41;14.70;99.90
5806;DHT22;2929;50.810;8.342;2023-05-10T10:03:14;14.70;99.90
5806;DHT22;2929;50.810;8.342;2023-05-10T10:05:42;14.60;99.90
5806;DHT22;2929;50.810;8.342;2023-05-10T10:08:10;14.80;99.90
5806;DHT22;2929;50.810;8.342;2023-05-10T10:10:37;15.00;99.90
5806;DHT22;2929;50.810;8.342;2023-05-10T10:13:07;15.20;99.90
5806;DHT22;2929;50.810;8.342;2023-05-10T10:15:34;15.10;99.90
5806;DHT22;2929;50.810;8.342;2023-05-10T10:18:02;15.00;99.90
5806;DHT22;2929;50.810;8.342;2023-05-10T10:20:31;14.90;99.90
5806;DHT22;2929;50.810;8.342;2023-05-10T10:22:58;14.70;99.90
5806;DHT22;2929;50.810;8.342;2023-05-10T10:25:25;14.60;99.90
5806;DHT22;2929;50.810;8.342;2023-05-10T10:28:08;14.50;99.90
5806;DHT22;2929;50.810;8.342;2023-05-10T10:30:41;14.30;99.90
5806;DHT22;2929;50.810;8.342;2023-05-10T10:33:30;14.10;99.90
5806;DHT22;2929;50.810;8.342;2023-05-10T10:36:01;13.90;99.90
5806;DHT22;2929;50.810;8.342;2023-05-10T10:38:36;13.70;99.90
5806;DHT22;2929;50.810;8.342;2023-05-10T10:41:09;13.50;99.90
5806;DHT22;2929;50.810;8.342;2023-05-10T10:43:37;13.40;99.90
5806;DHT22;2929;50.810;8.342;2023-05-10T10:46:11;13.40;99.90
5806;DHT22;2929;50.810;8.342;2023-05-10T10:48:48;13.30;99.90
5806;DHT22;2929;50.810;8.342;2023-05-10T10:51:16;13.30;99.90
5806;DHT22;2929;50.810;8.342;2023-05-10T10:53:44;13.30;99.90
5806;DHT22;2929;50.810;8.342;2023-05-10T10:56:12;13.30;99.90
5806;DHT22;2929;50.810;8.342;2023-05-10T10:58:41;13.50;99.90
5806;DHT22;2929;50.810;8.342;2023-05-10T11:01:12;13.50;99.90
5806;DHT22;2929;50.810;8.342;2023-05-10T11:03:40;13.60;99.90
5806;DHT22;2929;50.810;8.342;2023-05-10T11:06:07;13.80;99.90
5806;DHT22;2929;50.810;8.342;2023-05-10T11:08:41;13.90;99.90
5806;DHT22;2929;50.810;8.342;2023-05-10T11:11:09;14.10;99.90
5806;DHT22;2929;50.810;8.342;2023-05-10T11:13:41;14.20;99.90
5806;DHT22;2929;50.810;8.342;2023-05-10T11:16:16;14.30;99.90
5806;DHT22;2929;50.810;8.342;2023-05-10T11:18:56;14.30;99.90
5806;DHT22;2929;50.810;8.342;2023-05-10T11:21:24;14.30;99.90
5806;DHT22;2929;50.810;8.342;2023-05-10T11:23:54;14.40;99.90
5806;DHT22;2929;50.810;8.342;2023-05-10T11:26:23;14.40;99.90
5806;DHT22;2929;50.810;8.342;2023-05-10T11:28:52;14.60;99.90
5806;DHT22;2929;50.810;8.342;2023-05-10T11:31:21;14.60;99.90
5806;DHT22;2929;50.810;8.342;2023-05-10T11:33:52;14.40;99.90
5806;DHT22;2929;50.810;8.342;2023-05-10T11:36:20;14.20;99.90
5806;DHT22;2929;50.810;8.342;2023-05-10T11:38:48;14.20;99.90
5806;DHT22;2929;50.810;8.342;2023-05-10T11:41:17;14.20;99.90
5806;DHT22;2929;50.810;8.342;2023-05-10T11:43:49;14.20;99.90
5806;DHT22;2929;50.810;8.342;2023-05-10T11:46:19;14.00;99.90
5806;DHT22;2929;50.810;8.342;2023-05-10T11:48:47;14.00;99.90
5806;DHT22;2929;50.810;8.342;2023-05-10T11:51:19;13.90;99.90
5806;DHT22;2929;50.810;8.342;2023-05-10T11:53:55;13.70;99.90
5806;DHT22;2929;50.810;8.342;2023-05-10T11:56:24;13.70;99.90
5806;DHT22;2929;50.810;8.342;2023-05-10T11:58:56;13.70;99.90
5806;DHT22;2929;50.810;8.342;2023-05-10T12:01:27;13.90;99.90
5806;DHT22;2929;50.810;8.342;2023-05-10T12:03:56;13.90;99.90
5806;DHT22;2929;50.810;8.342;2023-05-10T12:06:26;14.10;99.90
5806;DHT22;2929;50.810;8.342;2023-05-10T12:08:54;14.10;99.90
5806;DHT22;2929;50.810;8.342;2023-05-10T12:11:26;14.10;99.90
5806;DHT22;2929;50.810;8.342;2023-05-10T12:13:55;14.20;99.90
5806;DHT22;2929;50.810;8.342;2023-05-10T12:16:24;14.20;99.90
5806;DHT22;2929;50.810;8.342;2023-05-10T12:18:56;14.30;99.90
5806;DHT22;2929;50.810;8.342;2023-05-10T12:21:26;14.40;99.90
5806;DHT22;2929;50.810;8.342;2023-05-10T12:24:01;14.40;99.90
5806;DHT22;2929;50.810;8.342;2023-05-10T12:26:30;14.30;99.90
5806;DHT22;2929;50.810;8.342;2023-05-10T12:29:12;14.30;99.90
5806;DHT22;2929;50.810;8.342;2023-05-10T12:31:56;14.40;99.90
5806;DHT22;2929;50.810;8.342;2023-05-10T12:34:30;14.30;99.90
5806;DHT22;2929;50.810;8.342;2023-05-10T12:36:57;14.40;99.90
5806;DHT22;2929;50.810;8.342;2023-05-10T12:39:25;14.50;99.90
5806;DHT22;2929;50.810;8.342;2023-05-10T12:41:54;14.50;99.90
5806;DHT22;2929;50.810;8.342;2023-05-10T12:44:21;14.40;99.90
5806;DHT22;2929;50.810;8.342;2023-05-10T12:46:48;14.30;99.90
5806;DHT22;2929;50.810;8.342;2023-05-10T12:49:15;14.40;99.90
5806;DHT22;2929;50.810;8.342;2023-05-10T12:51:42;14.40;99.90
5806;DHT22;2929;50.810;8.342;2023-05-10T12:54:09;14.40;99.90
5806;DHT22;2929;50.810;8.342;2023-05-10T12:56:36;14.40;99.90
5806;DHT22;2929;50.810;8.342;2023-05-10T12:59:05;14.30;99.90
5806;DHT22;2929;50.810;8.342;2023-05-10T13:01:32;14.30;99.90
5806;DHT22;2929;50.810;8.342;2023-05-10T13:03:59;14.30;99.90
5806;DHT22;2929;50.810;8.342;2023-05-10T13:06:26;14.20;99.90
5806;DHT22;2929;50.810;8.342;2023-05-10T13:08:53;14.20;99.90
5806;DHT22;2929;50.810;8.342;2023-05-10T13:11:20;14.50;99.90
5806;DHT22;2929;50.810;8.342;2023-05-10T13:13:47;14.50;99.90
5806;DHT22;2929;50.810;8.342;2023-05-10T13:16:15;14.40;99.90
5806;DHT22;2929;50.810;8.342;2023-05-10T13:18:42;14.40;99.90
5806;DHT22;2929;50.810;8.342;2023-05-10T13:21:09;14.40;99.90
5806;DHT22;2929;50.810;8.342;2023-05-10T13:27:32;14.80;99.90
5806;DHT22;2929;50.810;8.342;2023-05-10T13:29:59;14.80;99.90
5806;DHT22;2929;50.810;8.342;2023-05-10T13:32:27;15.00;99.90
5806;DHT22;2929;50.810;8.342;2023-05-10T13:34:55;15.00;99.90
5806;DHT22;2929;50.810;8.342;2023-05-10T13:37:22;15.40;99.90
5806;DHT22;2929;50.810;8.342;2023-05-10T13:39:49;16.00;99.90
5806;DHT22;2929;50.810;8.342;2023-05-10T13:42:16;16.40;99.90
5806;DHT22;2929;50.810;8.342;2023-05-10T13:44:43;16.80;99.90
5806;DHT22;2929;50.810;8.342;2023-05-10T13:47:10;16.90;99.90
5806;DHT22;2929;50.810;8.342;2023-05-10T13:49:39;16.30;99.90
5806;DHT22;2929;50.810;8.342;2023-05-10T13:52:06;16.30;99.90
5806;DHT22;2929;50.810;8.342;2023-05-10T13:54:33;16.60;99.90
5806;DHT22;2929;50.810;8.342;2023-05-10T13:57:08;16.60;99.90
5806;DHT22;2929;50.810;8.342;2023-05-10T14:00:05;17.00;99.90
5806;DHT22;2929;50.810;8.342;2023-05-10T14:02:33;17.20;99.90
5806;DHT22;2929;50.810;8.342;2023-05-10T14:05:02;16.70;99.90
5806;DHT22;2929;50.810;8.342;2023-05-10T14:07:29;16.40;99.90
5806;DHT22;2929;50.810;8.342;2023-05-10T14:09:56;16.30;99.90
5806;DHT22;2929;50.810;8.342;2023-05-10T14:12:23;16.10;99.90
5806;DHT22;2929;50.810;8.342;2023-05-10T14:14:50;15.80;99.90
5806;DHT22;2929;50.810;8.342;2023-05-10T14:17:17;15.60;99.90
5806;DHT22;2929;50.810;8.342;2023-05-10T14:19:45;15.40;99.90
5806;DHT22;2929;50.810;8.342;2023-05-10T14:22:13;15.30;99.90
5806;DHT22;2929;50.810;8.342;2023-05-10T14:24:40;15.30;99.90
5806;DHT22;2929;50.810;8.342;2023-05-10T14:27:09;15.20;99.90
5806;DHT22;2929;50.810;8.342;2023-05-10T14:29:36;15.10;99.90
5806;DHT22;2929;50.810;8.342;2023-05-10T14:32:03;15.00;99.90
5806;DHT22;2929;50.810;8.342;2023-05-10T14:34:30;14.90;99.90
5806;DHT22;2929;50.810;8.342;2023-05-10T14:36:57;14.80;99.90
5806;DHT22;2929;50.810;8.342;2023-05-10T14:39:25;14.90;99.90
5806;DHT22;2929;50.810;8.342;2023-05-10T14:41:55;14.90;99.90
5806;DHT22;2929;50.810;8.342;2023-05-10T14:44:22;14.90;99.90
5806;DHT22;2929;50.810;8.342;2023-05-10T14:46:49;14.90;99.90
5806;DHT22;2929;50.810;8.342;2023-05-10T14:49:16;14.80;99.90
5806;DHT22;2929;50.810;8.342;2023-05-10T14:51:43;14.80;99.90
5806;DHT22;2929;50.810;8.342;2023-05-10T14:54:10;14.90;99.90
5806;DHT22;2929;50.810;8.342;2023-05-10T14:56:38;15.00;99.90
5806;DHT22;2929;50.810;8.342;2023-05-10T14:59:07;14.90;99.90
5806;DHT22;2929;50.810;8.342;2023-05-10T15:01:34;15.10;99.90
5806;DHT22;2929;50.810;8.342;2023-05-10T15:04:03;15.20;99.90
5806;DHT22;2929;50.810;8.342;2023-05-10T15:06:33;15.20;99.90
5806;DHT22;2929;50.810;8.342;2023-05-10T15:09:04;15.20;99.90
5806;DHT22;2929;50.810;8.342;2023-05-10T15:11:31;15.20;99.90
5806;DHT22;2929;50.810;8.342;2023-05-10T15:14:00;15.30;99.90
5806;DHT22;2929;50.810;8.342;2023-05-10T15:16:28;15.30;99.90
5806;DHT22;2929;50.810;8.342;2023-05-10T15:18:55;15.20;99.90
5806;DHT22;2929;50.810;8.342;2023-05-10T15:21:22;15.10;99.90
5806;DHT22;2929;50.810;8.342;2023-05-10T15:23:49;15.20;99.90
5806;DHT22;2929;50.810;8.342;2023-05-10T15:26:15;15.00;99.90
5806;DHT22;2929;50.810;8.342;2023-05-10T15:28:42;14.90;99.90
5806;DHT22;2929;50.810;8.342;2023-05-10T15:31:11;14.80;99.90
5806;DHT22;2929;50.810;8.342;2023-05-10T15:33:38;14.60;99.90
5806;DHT22;2929;50.810;8.342;2023-05-10T15:36:05;14.70;99.90
5806;DHT22;2929;50.810;8.342;2023-05-10T15:38:32;14.70;99.90
5806;DHT22;2929;50.810;8.342;2023-05-10T15:40:59;14.90;99.90
5806;DHT22;2929;50.810;8.342;2023-05-10T15:43:26;15.00;99.90
5806;DHT22;2929;50.810;8.342;2023-05-10T15:45:53;15.10;99.90
5806;DHT22;2929;50.810;8.342;2023-05-10T15:48:22;15.10;99.90
5806;DHT22;2929;50.810;8.342;2023-05-10T15:50:49;15.20;99.90
5806;DHT22;2929;50.810;8.342;2023-05-10T15:53:16;15.20;99.90
5806;DHT22;2929;50.810;8.342;2023-05-10T15:55:43;15.20;99.90
5806;DHT22;2929;50.810;8.342;2023-05-10T15:58:10;15.00;99.90
5806;DHT22;2929;50.810;8.342;2023-05-10T16:00:37;15.20;99.90
5806;DHT22;2929;50.810;8.342;2023-05-10T16:03:04;15.40;99.90
5806;DHT22;2929;50.810;8.342;2023-05-10T16:05:33;15.30;99.90
5806;DHT22;2929;50.810;8.342;2023-05-10T16:08:00;15.30;99.90
5806;DHT22;2929;50.810;8.342;2023-05-10T16:10:30;15.10;99.90
5806;DHT22;2929;50.810;8.342;2023-05-10T16:12:57;15.20;99.90
5806;DHT22;2929;50.810;8.342;2023-05-10T16:15:25;15.40;99.90
5806;DHT22;2929;50.810;8.342;2023-05-10T16:17:52;15.40;99.90
5806;DHT22;2929;50.810;8.342;2023-05-10T16:20:19;15.50;99.90
5806;DHT22;2929;50.810;8.342;2023-05-10T16:22:47;15.50;99.90
5806;DHT22;2929;50.810;8.342;2023-05-10T16:25:14;15.60;99.90
5806;DHT22;2929;50.810;8.342;2023-05-10T16:27:42;15.50;99.90
5806;DHT22;2929;50.810;8.342;2023-05-10T16:30:09;15.70;99.90
5806;DHT22;2929;50.810;8.342;2023-05-10T16:32:36;16.00;99.90
5806;DHT22;2929;50.810;8.342;2023-05-10T16:35:04;15.90;99.90
5806;DHT22;2929;50.810;8.342;2023-05-10T16:37:31;16.20;99.90
5806;DHT22;2929;50.810;8.342;2023-05-10T16:39:59;16.10;99.90
5806;DHT22;2929;50.810;8.342;2023-05-10T16:42:26;16.10;99.90